sensor_id;sensor_type;location;lat;lon;timestamp;pressure;altitude;pressure_sealevel;temperature;humidity
71194;BME280;58903;47.210;8.618;2022-12-26T00:00:07;94444.78;;;26.08;37.02
71194;BME280;58903;47.210;8.618;2022-12-26T00:02:39;94449.28;;;26.11;36.95
71194;BME280;58903;47.210;8.618;2022-12-26T00:05:06;94443.53;;;26.09;37.83
71194;BME280;58903;47.210;8.618;2022-12-26T00:07:35;94455.28;;;26.10;37.88
71194;BME280;58903;47.210;8.618;2022-12-26T00:10:17;94466.81;;;26.08;37.89
71194;BME280;58903;47.210;8.618;2022-12-26T00:12:51;94466.81;;;26.08;37.61
71194;BME280;58903;47.210;8.618;2022-12-26T00:15:16;94471.56;;;26.08;37.49
71194;BME280;58903;47.210;8.618;2022-12-26T00:17:43;94470.06;;;26.07;38.11
71194;BME280;58903;47.210;8.618;2022-12-26T00:20:12;94464.81;;;26.09;38.38
71194;BME280;58903;47.210;8.618;2022-12-26T00:22:44;94471.09;;;26.04;38.11
71194;BME280;58903;47.210;8.618;2022-12-26T00:25:14;94471.09;;;26.04;38.63
71194;BME280;58903;47.210;8.618;2022-12-26T00:27:42;94468.38;;;25.98;38.78
71194;BME280;58903;47.210;8.618;2022-12-26T00:30:20;94469.41;;;25.95;38.96
71194;BME280;58903;47.210;8.618;2022-12-26T00:32:46;94479.41;;;25.98;39.31
71194;BME280;58903;47.210;8.618;2022-12-26T00:35:11;94481.69;;;25.94;39.50
71194;BME280;58903;47.210;8.618;2022-12-26T00:37:37;94491.50;;;25.90;39.87
71194;BME280;58903;47.210;8.618;2022-12-26T00:40:08;94498.00;;;25.92;39.37
71194;BME280;58903;47.210;8.618;2022-12-26T00:42:37;94497.72;;;25.90;39.53
71194;BME280;58903;47.210;8.618;2022-12-26T00:45:12;94493.25;;;25.87;39.36
71194;BME280;58903;47.210;8.618;2022-12-26T00:47:47;94494.50;;;25.86;39.67
71194;BME280;58903;47.210;8.618;2022-12-26T00:50:26;94490.03;;;25.83;39.86
71194;BME280;58903;47.210;8.618;2022-12-26T00:53:05;94479.25;;;25.80;39.75
71194;BME280;58903;47.210;8.618;2022-12-26T00:55:38;94493.31;;;25.76;39.65
71194;BME280;58903;47.210;8.618;2022-12-26T00:58:10;94479.31;;;25.74;40.17
71194;BME280;58903;47.210;8.618;2022-12-26T01:01:11;94471.50;;;25.78;39.81
71194;BME280;58903;47.210;8.618;2022-12-26T01:03:49;94488.56;;;25.77;40.89
71194;BME280;58903;47.210;8.618;2022-12-26T01:06:26;94477.53;;;25.77;41.11
71194;BME280;58903;47.210;8.618;2022-12-26T01:09:01;94476.03;;;25.76;40.35
71194;BME280;58903;47.210;8.618;2022-12-26T01:11:29;94482.28;;;25.76;40.36
71194;BME280;58903;47.210;8.618;2022-12-26T01:14:16;94476.78;;;25.76;41.00
71194;BME280;58903;47.210;8.618;2022-12-26T01:16:52;94483.53;;;25.75;40.22
71194;BME280;58903;47.210;8.618;2022-12-26T01:19:20;94473.78;;;25.74;41.11
71194;BME280;58903;47.210;8.618;2022-12-26T01:21:57;94482.06;;;25.74;41.38
71194;BME280;58903;47.210;8.618;2022-12-26T01:24:27;94497.81;;;25.74;40.78
71194;BME280;58903;47.210;8.618;2022-12-26T01:26:59;94484.81;;;25.74;41.07
71194;BME280;58903;47.210;8.618;2022-12-26T01:29:25;94494.56;;;25.75;40.71
71194;BME280;58903;47.210;8.618;2022-12-26T01:31:51;94495.59;;;25.72;40.99
71194;BME280;58903;47.210;8.618;2022-12-26T01:34:17;94487.56;;;25.74;40.99
71194;BME280;58903;47.210;8.618;2022-12-26T01:36:43;94487.56;;;25.74;41.09
71194;BME280;58903;47.210;8.618;2022-12-26T01:39:11;94495.06;;;25.74;41.03
71194;BME280;58903;47.210;8.618;2022-12-26T01:41:39;94495.06;;;25.74;41.47
71194;BME280;58903;47.210;8.618;2022-12-26T01:47:09;94484.56;;;25.72;41.38
71194;BME280;58903;47.210;8.618;2022-12-26T01:49:42;94483.81;;;25.72;41.11
71194;BME280;58903;47.210;8.618;2022-12-26T01:52:33;94481.06;;;25.72;41.72
71194;BME280;58903;47.210;8.618;2022-12-26T01:55:07;94486.34;;;25.70;41.57
71194;BME280;58903;47.210;8.618;2022-12-26T01:57:44;94479.81;;;25.73;41.39
71194;BME280;58903;47.210;8.618;2022-12-26T02:00:27;94495.06;;;25.74;41.62
71194;BME280;58903;47.210;8.618;2022-12-26T02:02:55;94485.81;;;25.71;41.33
71194;BME280;58903;47.210;8.618;2022-12-26T02:05:43;94490.84;;;25.73;41.26
71194;BME280;58903;47.210;8.618;2022-12-26T02:08:23;94494.09;;;25.71;42.17
71194;BME280;58903;47.210;8.618;2022-12-26T02:14:20;94495.59;;;25.72;41.98
71194;BME280;58903;47.210;8.618;2022-12-26T02:16:57;94495.59;;;25.72;42.03
71194;BME280;58903;47.210;8.618;2022-12-26T02:20:07;94497.59;;;25.72;41.48
71194;BME280;58903;47.210;8.618;2022-12-26T02:22:40;94487.84;;;25.71;41.45
71194;BME280;58903;47.210;8.618;2022-12-26T02:28:31;94501.09;;;25.72;41.62
71194;BME280;58903;47.210;8.618;2022-12-26T02:36:56;94487.59;;;25.69;41.82
71194;BME280;58903;47.210;8.618;2022-12-26T02:42:31;94486.84;;;25.68;42.40
71194;BME280;58903;47.210;8.618;2022-12-26T02:52:13;94474.56;;;25.69;42.13
71194;BME280;58903;47.210;8.618;2022-12-26T02:59:04;94468.06;;;25.67;42.47
71194;BME280;58903;47.210;8.618;2022-12-26T03:02:04;94479.31;;;25.69;42.59
71194;BME280;58903;47.210;8.618;2022-12-26T03:04:52;94477.31;;;25.69;42.62
71194;BME280;58903;47.210;8.618;2022-12-26T03:07:50;94475.31;;;25.70;42.29
71194;BME280;58903;47.210;8.618;2022-12-26T03:10:35;94491.09;;;25.69;41.98
71194;BME280;58903;47.210;8.618;2022-12-26T03:13:39;94489.59;;;25.68;42.18
71194;BME280;58903;47.210;8.618;2022-12-26T03:16:35;94489.84;;;25.65;42.56
71194;BME280;58903;47.210;8.618;2022-12-26T03:19:21;94504.91;;;25.64;42.97
71194;BME280;58903;47.210;8.618;2022-12-26T03:21:51;94501.41;;;25.63;42.62
71194;BME280;58903;47.210;8.618;2022-12-26T03:24:17;94496.41;;;25.62;43.14
71194;BME280;58903;47.210;8.618;2022-12-26T03:26:51;94506.16;;;25.63;42.34
71194;BME280;58903;47.210;8.618;2022-12-26T03:29:22;94506.91;;;25.63;42.92
71194;BME280;58903;47.210;8.618;2022-12-26T03:32:11;94508.91;;;25.63;42.61
71194;BME280;58903;47.210;8.618;2022-12-26T03:34:48;94517.41;;;25.65;42.77
71194;BME280;58903;47.210;8.618;2022-12-26T03:37:33;94515.16;;;25.63;43.33
71194;BME280;58903;47.210;8.618;2022-12-26T03:46:23;94526.47;;;25.60;43.05
71194;BME280;58903;47.210;8.618;2022-12-26T03:49:21;94523.72;;;25.60;43.33
71194;BME280;58903;47.210;8.618;2022-12-26T03:55:34;94531.97;;;25.60;43.28
71194;BME280;58903;47.210;8.618;2022-12-26T04:01:30;94546.97;;;25.59;43.04
71194;BME280;58903;47.210;8.618;2022-12-26T04:04:20;94546.22;;;25.58;43.54
71194;BME280;58903;47.210;8.618;2022-12-26T04:07:14;94543.72;;;25.60;42.77
71194;BME280;58903;47.210;8.618;2022-12-26T04:10:08;94550.50;;;25.59;42.89
71194;BME280;58903;47.210;8.618;2022-12-26T04:12:57;94558.75;;;25.59;43.16
71194;BME280;58903;47.210;8.618;2022-12-26T04:16:05;94557.50;;;25.60;43.71
71194;BME280;58903;47.210;8.618;2022-12-26T04:28:00;94561.28;;;25.57;43.41
71194;BME280;58903;47.210;8.618;2022-12-26T04:31:01;94547.50;;;25.57;43.60
71194;BME280;58903;47.210;8.618;2022-12-26T04:33:57;94542.47;;;25.56;42.90
71194;BME280;58903;47.210;8.618;2022-12-26T04:37:03;94545.75;;;25.54;43.56
71194;BME280;58903;47.210;8.618;2022-12-26T04:39:53;94548.25;;;25.58;43.52
71194;BME280;58903;47.210;8.618;2022-12-26T04:42:44;94542.22;;;25.59;43.31
71194;BME280;58903;47.210;8.618;2022-12-26T04:45:30;94537.97;;;25.58;43.38
71194;BME280;58903;47.210;8.618;2022-12-26T04:47:59;94525.47;;;25.57;42.77
71194;BME280;58903;47.210;8.618;2022-12-26T04:50:52;94524.19;;;25.58;43.37
71194;BME280;58903;47.210;8.618;2022-12-26T04:53:19;94525.69;;;25.59;42.92
71194;BME280;58903;47.210;8.618;2022-12-26T04:55:47;94522.94;;;25.59;43.41
71194;BME280;58903;47.210;8.618;2022-12-26T04:58:15;94517.44;;;25.59;43.26
71194;BME280;58903;47.210;8.618;2022-12-26T05:00:42;94518.19;;;25.60;42.93
71194;BME280;58903;47.210;8.618;2022-12-26T05:03:15;94519.44;;;25.59;43.43
71194;BME280;58903;47.210;8.618;2022-12-26T05:06:02;94509.94;;;25.60;43.33
71194;BME280;58903;47.210;8.618;2022-12-26T05:08:49;94511.19;;;25.59;43.04
71194;BME280;58903;47.210;8.618;2022-12-26T05:11:36;94517.97;;;25.58;42.72
71194;BME280;58903;47.210;8.618;2022-12-26T05:14:02;94517.19;;;25.57;43.46
71194;BME280;58903;47.210;8.618;2022-12-26T05:16:39;94513.19;;;25.58;43.13
71194;BME280;58903;47.210;8.618;2022-12-26T05:19:24;94514.44;;;25.57;42.98
71194;BME280;58903;47.210;8.618;2022-12-26T05:22:10;94520.44;;;25.56;43.04
71194;BME280;58903;47.210;8.618;2022-12-26T05:24:57;94510.19;;;25.56;43.36
71194;BME280;58903;47.210;8.618;2022-12-26T05:27:44;94500.69;;;25.57;42.87
71194;BME280;58903;47.210;8.618;2022-12-26T05:30:28;94490.91;;;25.56;43.50
71194;BME280;58903;47.210;8.618;2022-12-26T05:32:54;94503.91;;;25.56;43.46
71194;BME280;58903;47.210;8.618;2022-12-26T05:35:39;94499.16;;;25.56;43.54
71194;BME280;58903;47.210;8.618;2022-12-26T05:38:08;94509.44;;;25.56;43.70
71194;BME280;58903;47.210;8.618;2022-12-26T05:40:37;94510.19;;;25.56;43.25
71194;BME280;58903;47.210;8.618;2022-12-26T05:43:03;94506.19;;;25.57;43.65
71194;BME280;58903;47.210;8.618;2022-12-26T05:45:31;94501.16;;;25.56;43.42
71194;BME280;58903;47.210;8.618;2022-12-26T05:48:00;94501.16;;;25.61;43.27
71194;BME280;58903;47.210;8.618;2022-12-26T05:50:28;94513.94;;;25.64;43.20
71194;BME280;58903;47.210;8.618;2022-12-26T05:52:59;94518.69;;;25.64;43.34
71194;BME280;58903;47.210;8.618;2022-12-26T05:55:27;94514.41;;;25.63;43.40
71194;BME280;58903;47.210;8.618;2022-12-26T05:57:53;94514.66;;;25.65;43.18
71194;BME280;58903;47.210;8.618;2022-12-26T06:00:19;94507.16;;;25.65;43.17
71194;BME280;58903;47.210;8.618;2022-12-26T06:02:46;94513.16;;;25.64;43.32
71194;BME280;58903;47.210;8.618;2022-12-26T06:05:14;94504.44;;;25.60;42.96
71194;BME280;58903;47.210;8.618;2022-12-26T06:07:47;94505.16;;;25.60;43.23
71194;BME280;58903;47.210;8.618;2022-12-26T06:10:20;94506.19;;;25.57;43.30
71194;BME280;58903;47.210;8.618;2022-12-26T06:13:01;94506.94;;;25.58;43.17
71194;BME280;58903;47.210;8.618;2022-12-26T06:15:27;94508.94;;;25.57;43.62
71194;BME280;58903;47.210;8.618;2022-12-26T06:17:55;94492.41;;;25.57;42.88
71194;BME280;58903;47.210;8.618;2022-12-26T06:20:21;94492.41;;;25.57;43.11
71194;BME280;58903;47.210;8.618;2022-12-26T06:22:54;94495.94;;;25.58;43.73
71194;BME280;58903;47.210;8.618;2022-12-26T06:25:20;94492.19;;;25.55;43.15
71194;BME280;58903;47.210;8.618;2022-12-26T06:27:52;94487.41;;;25.56;42.54
71194;BME280;58903;47.210;8.618;2022-12-26T06:30:26;94493.66;;;25.56;43.68
71194;BME280;58903;47.210;8.618;2022-12-26T06:32:52;94489.19;;;25.53;43.45
71194;BME280;58903;47.210;8.618;2022-12-26T06:35:18;94497.69;;;25.55;43.38
71194;BME280;58903;47.210;8.618;2022-12-26T06:37:47;94493.19;;;25.52;43.09
71194;BME280;58903;47.210;8.618;2022-12-26T06:40:37;94487.66;;;25.52;43.64
71194;BME280;58903;47.210;8.618;2022-12-26T06:43:09;94486.66;;;25.55;43.48
71194;BME280;58903;47.210;8.618;2022-12-26T06:45:35;94477.13;;;25.56;43.38
71194;BME280;58903;47.210;8.618;2022-12-26T06:48:02;94476.38;;;25.56;43.26
71194;BME280;58903;47.210;8.618;2022-12-26T06:50:30;94474.38;;;25.56;43.34
71194;BME280;58903;47.210;8.618;2022-12-26T06:52:56;94471.88;;;25.58;43.69
71194;BME280;58903;47.210;8.618;2022-12-26T06:55:22;94474.63;;;25.58;43.40
71194;BME280;58903;47.210;8.618;2022-12-26T06:57:50;94467.63;;;25.57;43.41
71194;BME280;58903;47.210;8.618;2022-12-26T07:00:19;94468.88;;;25.56;43.33
71194;BME280;58903;47.210;8.618;2022-12-26T07:02:48;94463.13;;;25.54;43.23
71194;BME280;58903;47.210;8.618;2022-12-26T07:05:16;94467.38;;;25.55;43.20
71194;BME280;58903;47.210;8.618;2022-12-26T07:07:42;94469.91;;;25.53;43.54
71194;BME280;58903;47.210;8.618;2022-12-26T07:10:09;94473.63;;;25.56;43.87
71194;BME280;58903;47.210;8.618;2022-12-26T07:12:44;94478.66;;;25.57;43.55
71194;BME280;58903;47.210;8.618;2022-12-26T07:15:14;94473.88;;;25.58;43.59
71194;BME280;58903;47.210;8.618;2022-12-26T07:17:41;94490.41;;;25.58;43.08
71194;BME280;58903;47.210;8.618;2022-12-26T07:20:11;94492.41;;;25.57;43.61
71194;BME280;58903;47.210;8.618;2022-12-26T07:22:37;94489.16;;;25.59;43.66
71194;BME280;58903;47.210;8.618;2022-12-26T07:25:04;94483.88;;;25.61;43.69
71194;BME280;58903;47.210;8.618;2022-12-26T07:27:37;94481.88;;;25.61;43.33
71194;BME280;58903;47.210;8.618;2022-12-26T07:30:03;94491.38;;;25.60;43.06
71194;BME280;58903;47.210;8.618;2022-12-26T07:32:29;94492.13;;;25.61;43.12
71194;BME280;58903;47.210;8.618;2022-12-26T07:34:59;94500.16;;;25.59;42.73
71194;BME280;58903;47.210;8.618;2022-12-26T07:37:25;94492.66;;;25.59;43.74
71194;BME280;58903;47.210;8.618;2022-12-26T07:39:51;94500.16;;;25.59;43.26
71194;BME280;58903;47.210;8.618;2022-12-26T07:42:21;94504.91;;;25.58;43.27
71194;BME280;58903;47.210;8.618;2022-12-26T07:44:47;94497.41;;;25.59;43.57
71194;BME280;58903;47.210;8.618;2022-12-26T07:47:13;94492.66;;;25.59;43.43
71194;BME280;58903;47.210;8.618;2022-12-26T07:49:38;94489.16;;;25.59;43.82
71194;BME280;58903;47.210;8.618;2022-12-26T07:52:04;94489.63;;;25.63;43.73
71194;BME280;58903;47.210;8.618;2022-12-26T07:54:33;94482.13;;;25.63;43.63
71194;BME280;58903;47.210;8.618;2022-12-26T07:56:59;94483.84;;;25.66;43.45
71194;BME280;58903;47.210;8.618;2022-12-26T07:59:25;94480.06;;;25.69;43.34
71194;BME280;58903;47.210;8.618;2022-12-26T08:01:53;94494.31;;;25.73;42.66
71194;BME280;58903;47.210;8.618;2022-12-26T08:04:33;94497.06;;;25.73;42.99
71194;BME280;58903;47.210;8.618;2022-12-26T08:06:59;94494.56;;;25.75;43.20
71194;BME280;58903;47.210;8.618;2022-12-26T08:09:28;94502.81;;;25.75;42.89
71194;BME280;58903;47.210;8.618;2022-12-26T08:11:54;94502.56;;;25.79;42.90
71194;BME280;58903;47.210;8.618;2022-12-26T08:14:20;94504.81;;;25.80;42.89
71194;BME280;58903;47.210;8.618;2022-12-26T08:16:46;94517.56;;;25.83;43.26
71194;BME280;58903;47.210;8.618;2022-12-26T08:19:12;94526.09;;;25.85;43.48
71194;BME280;58903;47.210;8.618;2022-12-26T08:21:38;94521.31;;;25.86;43.41
71194;BME280;58903;47.210;8.618;2022-12-26T08:24:13;94526.56;;;25.89;43.48
71194;BME280;58903;47.210;8.618;2022-12-26T08:26:41;94526.78;;;25.91;43.35
71194;BME280;58903;47.210;8.618;2022-12-26T08:29:10;94528.03;;;25.90;42.84
71194;BME280;58903;47.210;8.618;2022-12-26T08:31:36;94520.03;;;25.92;43.35
71194;BME280;58903;47.210;8.618;2022-12-26T08:34:02;94516.00;;;25.93;43.28
71194;BME280;58903;47.210;8.618;2022-12-26T08:36:28;94517.50;;;25.94;43.36
71194;BME280;58903;47.210;8.618;2022-12-26T08:39:00;94516.75;;;25.94;42.96
71194;BME280;58903;47.210;8.618;2022-12-26T08:41:29;94529.03;;;25.93;42.59
71194;BME280;58903;47.210;8.618;2022-12-26T08:44:05;94526.50;;;25.95;42.55
71194;BME280;58903;47.210;8.618;2022-12-26T08:46:43;94531.53;;;25.96;42.53
71194;BME280;58903;47.210;8.618;2022-12-26T08:49:09;94525.50;;;25.98;43.11
71194;BME280;58903;47.210;8.618;2022-12-26T08:51:35;94530.50;;;25.99;43.70
71194;BME280;58903;47.210;8.618;2022-12-26T08:54:01;94530.25;;;25.97;43.03
71194;BME280;58903;47.210;8.618;2022-12-26T08:56:27;94533.78;;;25.98;43.72
71194;BME280;58903;47.210;8.618;2022-12-26T08:58:57;94522.00;;;25.97;43.55
71194;BME280;58903;47.210;8.618;2022-12-26T09:01:26;94514.19;;;26.01;43.93
71194;BME280;58903;47.210;8.618;2022-12-26T09:03:55;94515.47;;;26.00;43.24
71194;BME280;58903;47.210;8.618;2022-12-26T09:06:33;94520.97;;;26.00;44.16
71194;BME280;58903;47.210;8.618;2022-12-26T09:09:17;94520.22;;;26.00;43.72
71194;BME280;58903;47.210;8.618;2022-12-26T09:11:47;94524.97;;;25.99;43.10
71194;BME280;58903;47.210;8.618;2022-12-26T09:14:18;94529.50;;;25.97;43.51
71194;BME280;58903;47.210;8.618;2022-12-26T09:16:54;94518.47;;;25.97;43.50
71194;BME280;58903;47.210;8.618;2022-12-26T09:19:30;94524.97;;;25.99;43.57
71194;BME280;58903;47.210;8.618;2022-12-26T09:22:06;94530.72;;;26.01;44.15
71194;BME280;58903;47.210;8.618;2022-12-26T09:24:52;94527.97;;;26.01;44.10
71194;BME280;58903;47.210;8.618;2022-12-26T09:27:28;94531.97;;;26.06;43.54
71194;BME280;58903;47.210;8.618;2022-12-26T09:29:54;94536.22;;;26.07;44.40
71194;BME280;58903;47.210;8.618;2022-12-26T09:32:22;94534.00;;;26.05;44.50
71194;BME280;58903;47.210;8.618;2022-12-26T09:34:48;94543.00;;;26.06;44.48
71194;BME280;58903;47.210;8.618;2022-12-26T09:37:14;94544.25;;;26.05;44.31
71194;BME280;58903;47.210;8.618;2022-12-26T09:39:42;94550.03;;;26.01;43.78
71194;BME280;58903;47.210;8.618;2022-12-26T09:45:36;94552.53;;;26.05;44.05
71194;BME280;58903;47.210;8.618;2022-12-26T09:48:52;94552.78;;;26.07;44.22
71194;BME280;58903;47.210;8.618;2022-12-26T09:51:30;94564.56;;;26.07;44.24
71194;BME280;58903;47.210;8.618;2022-12-26T09:54:29;94571.31;;;26.06;43.73
71194;BME280;58903;47.210;8.618;2022-12-26T09:57:16;94572.59;;;26.05;44.52
71194;BME280;58903;47.210;8.618;2022-12-26T10:00:01;94575.34;;;26.05;43.81
71194;BME280;58903;47.210;8.618;2022-12-26T10:02:40;94568.06;;;26.02;44.24
71194;BME280;58903;47.210;8.618;2022-12-26T10:05:12;94580.84;;;26.05;44.41
71194;BME280;58903;47.210;8.618;2022-12-26T10:07:45;94575.81;;;26.04;44.07
71194;BME280;58903;47.210;8.618;2022-12-26T10:10:56;94582.84;;;26.05;44.54
71194;BME280;58903;47.210;8.618;2022-12-26T10:13:35;94589.13;;;26.05;44.15
71194;BME280;58903;47.210;8.618;2022-12-26T10:19:38;94591.59;;;26.03;44.23
71194;BME280;58903;47.210;8.618;2022-12-26T10:22:28;94588.63;;;26.01;44.07
71194;BME280;58903;47.210;8.618;2022-12-26T10:25:02;94588.38;;;25.99;44.29
71194;BME280;58903;47.210;8.618;2022-12-26T10:27:39;94586.91;;;25.98;44.58
71194;BME280;58903;47.210;8.618;2022-12-26T10:30:35;94583.63;;;26.00;44.86
71194;BME280;58903;47.210;8.618;2022-12-26T10:33:16;94580.88;;;26.00;44.27
71194;BME280;58903;47.210;8.618;2022-12-26T10:35:45;94578.63;;;25.98;44.17
71194;BME280;58903;47.210;8.618;2022-12-26T10:41:46;94598.41;;;25.97;44.15
71194;BME280;58903;47.210;8.618;2022-12-26T10:44:46;94599.63;;;26.01;44.65
71194;BME280;58903;47.210;8.618;2022-12-26T10:47:35;94613.19;;;25.99;44.61
71194;BME280;58903;47.210;8.618;2022-12-26T10:50:30;94617.69;;;25.97;44.13
71194;BME280;58903;47.210;8.618;2022-12-26T10:53:15;94622.25;;;25.94;44.49
71194;BME280;58903;47.210;8.618;2022-12-26T10:55:43;94620.97;;;25.95;44.51
71194;BME280;58903;47.210;8.618;2022-12-26T11:00:50;94646.06;;;25.92;45.38
71194;BME280;58903;47.210;8.618;2022-12-26T11:03:56;94656.31;;;25.91;45.95
71194;BME280;58903;47.210;8.618;2022-12-26T11:06:38;94657.06;;;25.92;45.82
71194;BME280;58903;47.210;8.618;2022-12-26T11:09:24;94671.59;;;25.92;46.35
71194;BME280;58903;47.210;8.618;2022-12-26T11:12:00;94668.84;;;25.92;46.02
71194;BME280;58903;47.210;8.618;2022-12-26T11:16:58;94676.09;;;25.95;46.92
71194;BME280;58903;47.210;8.618;2022-12-26T11:19:28;94676.84;;;25.96;46.08
71194;BME280;58903;47.210;8.618;2022-12-26T11:24:40;94677.84;;;25.98;46.60
71194;BME280;58903;47.210;8.618;2022-12-26T11:27:51;94689.88;;;26.01;45.87
71194;BME280;58903;47.210;8.618;2022-12-26T11:30:36;94675.06;;;26.04;46.43
71194;BME280;58903;47.210;8.618;2022-12-26T11:35:35;94660.28;;;26.01;45.61
71194;BME280;58903;47.210;8.618;2022-12-26T11:38:04;94666.81;;;25.98;46.06
71194;BME280;58903;47.210;8.618;2022-12-26T11:40:36;94659.03;;;25.97;46.39
71194;BME280;58903;47.210;8.618;2022-12-26T11:43:14;94664.56;;;25.97;45.79
71194;BME280;58903;47.210;8.618;2022-12-26T11:45:48;94653.53;;;25.97;46.22
71194;BME280;58903;47.210;8.618;2022-12-26T11:48:21;94650.28;;;25.98;45.94
71194;BME280;58903;47.210;8.618;2022-12-26T11:50:57;94652.53;;;26.00;45.22
71194;BME280;58903;47.210;8.618;2022-12-26T11:54:00;94651.03;;;25.99;44.89
71194;BME280;58903;47.210;8.618;2022-12-26T11:57:04;94648.75;;;26.03;44.33
71194;BME280;58903;47.210;8.618;2022-12-26T12:03:25;94649.53;;;25.98;45.16
71194;BME280;58903;47.210;8.618;2022-12-26T12:08:55;94652.56;;;25.94;44.19
71194;BME280;58903;47.210;8.618;2022-12-26T12:11:49;94662.31;;;25.95;45.04
71194;BME280;58903;47.210;8.618;2022-12-26T12:17:59;94647.28;;;25.91;44.62
71194;BME280;58903;47.210;8.618;2022-12-26T12:26:41;94646.06;;;25.86;45.23
71194;BME280;58903;47.210;8.618;2022-12-26T12:36:12;94652.84;;;25.85;44.72
71194;BME280;58903;47.210;8.618;2022-12-26T12:39:08;94651.56;;;25.86;45.58
71194;BME280;58903;47.210;8.618;2022-12-26T12:42:09;94653.31;;;25.89;45.50
71194;BME280;58903;47.210;8.618;2022-12-26T12:48:00;94645.81;;;25.90;45.12
71194;BME280;58903;47.210;8.618;2022-12-26T13:02:53;94640.78;;;25.88;45.24
71194;BME280;58903;47.210;8.618;2022-12-26T13:08:46;94654.06;;;25.90;44.93
71194;BME280;58903;47.210;8.618;2022-12-26T13:17:10;94647.06;;;25.89;45.28
71194;BME280;58903;47.210;8.618;2022-12-26T13:22:50;94648.56;;;25.90;44.82
71194;BME280;58903;47.210;8.618;2022-12-26T13:25:46;94647.06;;;25.89;44.96
71194;BME280;58903;47.210;8.618;2022-12-26T13:28:23;94652.03;;;25.90;44.78
71194;BME280;58903;47.210;8.618;2022-12-26T13:30:54;94643.78;;;25.90;45.14
71194;BME280;58903;47.210;8.618;2022-12-26T13:33:23;94636.28;;;25.91;44.81
71194;BME280;58903;47.210;8.618;2022-12-26T13:35:59;94632.75;;;25.90;44.48
71194;BME280;58903;47.210;8.618;2022-12-26T13:41:18;94635.75;;;25.98;44.36
71194;BME280;58903;47.210;8.618;2022-12-26T13:57:35;94638.00;;;25.99;44.34
71194;BME280;58903;47.210;8.618;2022-12-26T14:00:24;94640.75;;;25.99;43.95
71194;BME280;58903;47.210;8.618;2022-12-26T14:06:36;94647.00;;;26.00;44.49
71194;BME280;58903;47.210;8.618;2022-12-26T14:09:20;94640.75;;;25.99;44.69
71194;BME280;58903;47.210;8.618;2022-12-26T14:20:45;94656.28;;;25.97;44.50
71194;BME280;58903;47.210;8.618;2022-12-26T14:37:01;94640.25;;;26.01;45.20
71194;BME280;58903;47.210;8.618;2022-12-26T14:42:23;94611.69;;;25.98;44.60
71194;BME280;58903;47.210;8.618;2022-12-26T14:56:39;94600.91;;;26.00;44.98
71194;BME280;58903;47.210;8.618;2022-12-26T14:59:31;94608.94;;;25.93;44.79
71194;BME280;58903;47.210;8.618;2022-12-26T15:02:31;94605.97;;;25.91;45.75
71194;BME280;58903;47.210;8.618;2022-12-26T15:05:21;94607.72;;;25.88;45.86
71194;BME280;58903;47.210;8.618;2022-12-26T15:24:44;94636.28;;;25.91;46.17
71194;BME280;58903;47.210;8.618;2022-12-26T15:30:40;94627.50;;;25.92;46.22
71194;BME280;58903;47.210;8.618;2022-12-26T15:33:51;94640.53;;;25.92;45.20
71194;BME280;58903;47.210;8.618;2022-12-26T15:36:54;94649.03;;;25.94;45.89
71194;BME280;58903;47.210;8.618;2022-12-26T15:40:04;94660.31;;;25.96;45.88
71194;BME280;58903;47.210;8.618;2022-12-26T15:42:54;94680.38;;;25.96;44.74
71194;BME280;58903;47.210;8.618;2022-12-26T16:02:58;94725.69;;;25.95;45.00
71194;BME280;58903;47.210;8.618;2022-12-26T16:08:33;94720.94;;;25.96;45.37
71194;BME280;58903;47.210;8.618;2022-12-26T16:11:23;94702.16;;;25.94;45.53
71194;BME280;58903;47.210;8.618;2022-12-26T16:14:02;94683.88;;;25.91;44.98
71194;BME280;58903;47.210;8.618;2022-12-26T16:16:35;94692.16;;;25.91;44.73
71194;BME280;58903;47.210;8.618;2022-12-26T16:19:21;94702.16;;;25.94;45.53
71194;BME280;58903;47.210;8.618;2022-12-26T16:22:06;94711.69;;;25.93;44.82
71194;BME280;58903;47.210;8.618;2022-12-26T16:25:21;94712.94;;;25.92;45.15
71194;BME280;58903;47.210;8.618;2022-12-26T16:27:57;94702.91;;;26.00;45.14
71194;BME280;58903;47.210;8.618;2022-12-26T16:30:33;94671.06;;;25.99;44.80
71194;BME280;58903;47.210;8.618;2022-12-26T16:33:01;94672.56;;;26.00;45.41
71194;BME280;58903;47.210;8.618;2022-12-26T16:35:38;94678.09;;;26.00;44.72
71194;BME280;58903;47.210;8.618;2022-12-26T16:38:30;94672.81;;;26.02;45.06
71194;BME280;58903;47.210;8.618;2022-12-26T16:41:21;94680.84;;;26.00;45.21
71194;BME280;58903;47.210;8.618;2022-12-26T16:43:50;94684.84;;;25.99;44.86
71194;BME280;58903;47.210;8.618;2022-12-26T16:46:28;94698.63;;;25.99;45.25
71194;BME280;58903;47.210;8.618;2022-12-26T16:49:00;94714.44;;;25.99;44.57
71194;BME280;58903;47.210;8.618;2022-12-26T16:57:01;94684.09;;;26.04;45.00
71194;BME280;58903;47.210;8.618;2022-12-26T16:59:37;94704.13;;;26.05;44.73
71194;BME280;58903;47.210;8.618;2022-12-26T17:02:15;94715.66;;;26.03;44.54
71194;BME280;58903;47.210;8.618;2022-12-26T17:05:03;94718.16;;;26.01;44.88
71194;BME280;58903;47.210;8.618;2022-12-26T17:07:31;94734.69;;;26.01;44.71
71194;BME280;58903;47.210;8.618;2022-12-26T17:10:02;94728.94;;;26.05;44.71
71194;BME280;58903;47.210;8.618;2022-12-26T17:12:37;94742.22;;;26.06;44.83
71194;BME280;58903;47.210;8.618;2022-12-26T17:15:05;94746.25;;;26.05;44.81
71194;BME280;58903;47.210;8.618;2022-12-26T17:17:58;94751.50;;;26.09;44.78
71194;BME280;58903;47.210;8.618;2022-12-26T17:22:52;94758.75;;;26.06;44.70
71194;BME280;58903;47.210;8.618;2022-12-26T17:25:26;94770.53;;;26.07;45.20
71194;BME280;58903;47.210;8.618;2022-12-26T17:31:27;94766.50;;;26.08;45.46
71194;BME280;58903;47.210;8.618;2022-12-26T17:33:56;94767.53;;;26.10;45.46
71194;BME280;58903;47.210;8.618;2022-12-26T17:36:26;94764.03;;;26.10;45.22
71194;BME280;58903;47.210;8.618;2022-12-26T17:38:57;94768.78;;;26.15;45.61
71194;BME280;58903;47.210;8.618;2022-12-26T17:41:35;94743.47;;;26.11;44.90